sensor_id;sensor_type;location;lat;lon;timestamp;P1;durP1;ratioP1;P2;durP2;ratioP2
45043;SDS011;30784;48.490;9.688;2023-01-01T00:03:52;17.05;;;9.32;;
45043;SDS011;30784;48.490;9.688;2023-01-01T00:06:19;14.75;;;8.00;;
45043;SDS011;30784;48.490;9.688;2023-01-01T00:08:45;14.48;;;8.30;;
45043;SDS011;30784;48.490;9.688;2023-01-01T00:11:11;12.55;;;7.03;;
45043;SDS011;30784;48.490;9.688;2023-01-01T00:13:38;15.23;;;7.97;;
45043;SDS011;30784;48.490;9.688;2023-01-01T00:16:05;13.93;;;7.30;;
45043;SDS011;30784;48.490;9.688;2023-01-01T00:18:36;13.90;;;8.05;;
45043;SDS011;30784;48.490;9.688;2023-01-01T00:23:29;14.85;;;7.97;;
45043;SDS011;30784;48.490;9.688;2023-01-01T00:25:55;14.50;;;7.78;;
45043;SDS011;30784;48.490;9.688;2023-01-01T00:28:20;17.10;;;10.95;;
45043;SDS011;30784;48.490;9.688;2023-01-01T00:30:46;18.35;;;10.93;;
45043;SDS011;30784;48.490;9.688;2023-01-01T00:33:12;20.48;;;12.38;;
45043;SDS011;30784;48.490;9.688;2023-01-01T00:35:37;19.92;;;11.30;;
45043;SDS011;30784;48.490;9.688;2023-01-01T00:38:03;20.27;;;10.55;;
45043;SDS011;30784;48.490;9.688;2023-01-01T00:40:29;16.50;;;9.40;;
45043;SDS011;30784;48.490;9.688;2023-01-01T00:42:54;17.67;;;8.85;;
45043;SDS011;30784;48.490;9.688;2023-01-01T00:45:20;14.52;;;8.32;;
45043;SDS011;30784;48.490;9.688;2023-01-01T00:47:46;18.70;;;9.55;;
45043;SDS011;30784;48.490;9.688;2023-01-01T00:50:11;19.98;;;11.13;;
45043;SDS011;30784;48.490;9.688;2023-01-01T00:52:37;18.77;;;10.00;;
45043;SDS011;30784;48.490;9.688;2023-01-01T00:55:02;16.30;;;8.68;;
45043;SDS011;30784;48.490;9.688;2023-01-01T00:57:28;15.73;;;7.65;;
45043;SDS011;30784;48.490;9.688;2023-01-01T00:59:54;12.93;;;6.20;;
45043;SDS011;30784;48.490;9.688;2023-01-01T01:02:19;11.95;;;6.20;;
45043;SDS011;30784;48.490;9.688;2023-01-01T01:04:45;11.98;;;6.68;;
45043;SDS011;30784;48.490;9.688;2023-01-01T01:07:10;13.63;;;7.32;;
45043;SDS011;30784;48.490;9.688;2023-01-01T01:09:36;12.13;;;7.72;;
45043;SDS011;30784;48.490;9.688;2023-01-01T01:12:01;16.98;;;11.45;;
45043;SDS011;30784;48.490;9.688;2023-01-01T01:14:27;15.15;;;9.88;;
45043;SDS011;30784;48.490;9.688;2023-01-01T01:16:52;12.98;;;7.88;;
45043;SDS011;30784;48.490;9.688;2023-01-01T01:19:18;14.38;;;7.93;;
45043;SDS011;30784;48.490;9.688;2023-01-01T01:21:47;11.10;;;5.90;;
45043;SDS011;30784;48.490;9.688;2023-01-01T01:24:13;10.52;;;4.70;;
45043;SDS011;30784;48.490;9.688;2023-01-01T01:26:39;9.32;;;4.40;;
45043;SDS011;30784;48.490;9.688;2023-01-01T01:29:04;8.77;;;4.03;;
45043;SDS011;30784;48.490;9.688;2023-01-01T01:31:31;8.88;;;3.85;;
45043;SDS011;30784;48.490;9.688;2023-01-01T01:33:58;7.72;;;3.55;;
45043;SDS011;30784;48.490;9.688;2023-01-01T01:36:24;8.82;;;4.00;;
45043;SDS011;30784;48.490;9.688;2023-01-01T01:38:51;8.20;;;3.72;;
45043;SDS011;30784;48.490;9.688;2023-01-01T01:41:18;7.03;;;3.00;;
45043;SDS011;30784;48.490;9.688;2023-01-01T01:43:50;7.85;;;3.25;;
45043;SDS011;30784;48.490;9.688;2023-01-01T01:46:29;6.32;;;2.60;;
45043;SDS011;30784;48.490;9.688;2023-01-01T01:49:02;6.80;;;2.50;;
45043;SDS011;30784;48.490;9.688;2023-01-01T01:51:40;5.78;;;2.42;;
45043;SDS011;30784;48.490;9.688;2023-01-01T01:54:10;7.82;;;3.25;;
45043;SDS011;30784;48.490;9.688;2023-01-01T01:56:48;7.38;;;2.92;;
45043;SDS011;30784;48.490;9.688;2023-01-01T01:59:26;6.38;;;2.60;;
45043;SDS011;30784;48.490;9.688;2023-01-01T02:01:55;7.55;;;2.92;;
45043;SDS011;30784;48.490;9.688;2023-01-01T02:04:21;6.85;;;2.72;;
45043;SDS011;30784;48.490;9.688;2023-01-01T02:06:47;5.88;;;2.25;;
45043;SDS011;30784;48.490;9.688;2023-01-01T02:09:14;6.80;;;2.50;;
45043;SDS011;30784;48.490;9.688;2023-01-01T02:11:39;7.50;;;2.80;;
45043;SDS011;30784;48.490;9.688;2023-01-01T02:14:05;7.63;;;2.72;;
45043;SDS011;30784;48.490;9.688;2023-01-01T02:16:39;9.20;;;2.58;;
45043;SDS011;30784;48.490;9.688;2023-01-01T02:22:14;7.00;;;2.78;;
45043;SDS011;30784;48.490;9.688;2023-01-01T02:25:16;7.25;;;2.40;;
45043;SDS011;30784;48.490;9.688;2023-01-01T02:30:42;7.25;;;2.80;;
45043;SDS011;30784;48.490;9.688;2023-01-01T02:33:13;7.95;;;3.58;;
45043;SDS011;30784;48.490;9.688;2023-01-01T02:35:47;6.50;;;2.47;;
45043;SDS011;30784;48.490;9.688;2023-01-01T02:38:30;6.43;;;2.38;;
45043;SDS011;30784;48.490;9.688;2023-01-01T02:41:03;7.18;;;2.53;;
45043;SDS011;30784;48.490;9.688;2023-01-01T02:43:31;7.70;;;2.50;;
45043;SDS011;30784;48.490;9.688;2023-01-01T02:45:57;6.72;;;2.58;;
45043;SDS011;30784;48.490;9.688;2023-01-01T02:54:07;6.93;;;2.75;;
45043;SDS011;30784;48.490;9.688;2023-01-01T03:07:57;7.85;;;2.85;;
45043;SDS011;30784;48.490;9.688;2023-01-01T03:12:58;6.75;;;2.30;;
45043;SDS011;30784;48.490;9.688;2023-01-01T03:18:11;7.55;;;2.95;;
45043;SDS011;30784;48.490;9.688;2023-01-01T03:20:50;6.20;;;2.30;;
45043;SDS011;30784;48.490;9.688;2023-01-01T03:23:20;7.03;;;2.50;;
45043;SDS011;30784;48.490;9.688;2023-01-01T03:25:55;6.38;;;2.42;;
45043;SDS011;30784;48.490;9.688;2023-01-01T03:28:26;6.47;;;2.30;;
45043;SDS011;30784;48.490;9.688;2023-01-01T03:30:56;7.40;;;2.65;;
45043;SDS011;30784;48.490;9.688;2023-01-01T03:33:25;6.10;;;2.42;;
45043;SDS011;30784;48.490;9.688;2023-01-01T03:36:00;7.15;;;2.50;;
45043;SDS011;30784;48.490;9.688;2023-01-01T03:38:39;7.07;;;2.60;;
45043;SDS011;30784;48.490;9.688;2023-01-01T03:41:56;6.82;;;2.53;;
45043;SDS011;30784;48.490;9.688;2023-01-01T03:44:20;6.60;;;2.40;;
45043;SDS011;30784;48.490;9.688;2023-01-01T03:46:59;6.82;;;2.65;;
45043;SDS011;30784;48.490;9.688;2023-01-01T03:49:25;7.93;;;3.13;;
45043;SDS011;30784;48.490;9.688;2023-01-01T03:57:22;7.40;;;3.15;;
45043;SDS011;30784;48.490;9.688;2023-01-01T04:00:04;8.40;;;3.25;;
45043;SDS011;30784;48.490;9.688;2023-01-01T04:02:47;7.38;;;3.20;;
45043;SDS011;30784;48.490;9.688;2023-01-01T04:05:19;7.82;;;3.10;;
45043;SDS011;30784;48.490;9.688;2023-01-01T04:07:46;8.43;;;3.30;;
45043;SDS011;30784;48.490;9.688;2023-01-01T04:10:16;7.43;;;3.40;;
45043;SDS011;30784;48.490;9.688;2023-01-01T04:12:49;8.23;;;3.40;;
45043;SDS011;30784;48.490;9.688;2023-01-01T04:15:21;8.35;;;3.72;;
45043;SDS011;30784;48.490;9.688;2023-01-01T04:17:52;8.35;;;3.65;;
45043;SDS011;30784;48.490;9.688;2023-01-01T04:20:19;8.25;;;3.45;;
45043;SDS011;30784;48.490;9.688;2023-01-01T04:22:50;8.70;;;3.75;;
45043;SDS011;30784;48.490;9.688;2023-01-01T04:25:15;10.10;;;4.80;;
45043;SDS011;30784;48.490;9.688;2023-01-01T04:27:41;8.85;;;4.30;;
45043;SDS011;30784;48.490;9.688;2023-01-01T04:30:08;8.32;;;4.10;;
45043;SDS011;30784;48.490;9.688;2023-01-01T04:32:35;8.98;;;4.25;;
45043;SDS011;30784;48.490;9.688;2023-01-01T04:35:01;12.55;;;5.00;;
45043;SDS011;30784;48.490;9.688;2023-01-01T04:37:26;10.75;;;4.60;;
45043;SDS011;30784;48.490;9.688;2023-01-01T04:39:52;9.65;;;5.03;;
45043;SDS011;30784;48.490;9.688;2023-01-01T04:42:17;10.45;;;4.63;;
45043;SDS011;30784;48.490;9.688;2023-01-01T04:44:43;9.73;;;4.25;;
45043;SDS011;30784;48.490;9.688;2023-01-01T04:47:09;10.00;;;4.28;;
45043;SDS011;30784;48.490;9.688;2023-01-01T04:49:35;10.30;;;4.50;;
45043;SDS011;30784;48.490;9.688;2023-01-01T04:52:01;9.95;;;4.28;;
45043;SDS011;30784;48.490;9.688;2023-01-01T04:54:27;8.68;;;4.03;;
45043;SDS011;30784;48.490;9.688;2023-01-01T04:56:52;10.27;;;4.72;;
45043;SDS011;30784;48.490;9.688;2023-01-01T04:59:18;9.27;;;4.30;;
45043;SDS011;30784;48.490;9.688;2023-01-01T05:01:46;9.38;;;4.00;;
45043;SDS011;30784;48.490;9.688;2023-01-01T05:04:12;10.23;;;4.38;;
45043;SDS011;30784;48.490;9.688;2023-01-01T05:06:38;8.45;;;3.92;;
45043;SDS011;30784;48.490;9.688;2023-01-01T05:09:04;8.90;;;4.20;;
45043;SDS011;30784;48.490;9.688;2023-01-01T05:11:32;9.43;;;4.07;;
45043;SDS011;30784;48.490;9.688;2023-01-01T05:13:58;9.57;;;4.30;;
45043;SDS011;30784;48.490;9.688;2023-01-01T05:16:25;10.95;;;4.75;;
45043;SDS011;30784;48.490;9.688;2023-01-01T05:18:55;8.40;;;4.20;;
45043;SDS011;30784;48.490;9.688;2023-01-01T05:21:25;9.55;;;4.60;;
45043;SDS011;30784;48.490;9.688;2023-01-01T05:23:55;9.05;;;4.22;;
45043;SDS011;30784;48.490;9.688;2023-01-01T05:26:25;10.63;;;4.18;;
45043;SDS011;30784;48.490;9.688;2023-01-01T05:28:54;8.27;;;3.80;;
45043;SDS011;30784;48.490;9.688;2023-01-01T05:31:21;9.15;;;3.95;;
45043;SDS011;30784;48.490;9.688;2023-01-01T05:33:49;10.50;;;4.45;;
45043;SDS011;30784;48.490;9.688;2023-01-01T05:36:18;9.25;;;4.20;;
45043;SDS011;30784;48.490;9.688;2023-01-01T05:38:46;10.10;;;4.43;;
45043;SDS011;30784;48.490;9.688;2023-01-01T05:41:12;9.45;;;3.97;;
45043;SDS011;30784;48.490;9.688;2023-01-01T05:43:39;10.63;;;4.32;;
45043;SDS011;30784;48.490;9.688;2023-01-01T05:46:06;10.43;;;4.80;;
45043;SDS011;30784;48.490;9.688;2023-01-01T05:48:34;8.85;;;4.15;;
45043;SDS011;30784;48.490;9.688;2023-01-01T05:51:01;8.63;;;3.90;;
45043;SDS011;30784;48.490;9.688;2023-01-01T05:53:28;9.88;;;3.97;;
45043;SDS011;30784;48.490;9.688;2023-01-01T05:55:54;8.82;;;4.05;;
45043;SDS011;30784;48.490;9.688;2023-01-01T05:58:20;9.05;;;3.80;;
45043;SDS011;30784;48.490;9.688;2023-01-01T06:00:48;8.43;;;3.75;;
45043;SDS011;30784;48.490;9.688;2023-01-01T06:03:14;8.70;;;3.60;;
45043;SDS011;30784;48.490;9.688;2023-01-01T06:05:39;8.25;;;3.97;;
45043;SDS011;30784;48.490;9.688;2023-01-01T06:08:05;10.07;;;3.75;;
45043;SDS011;30784;48.490;9.688;2023-01-01T06:10:30;10.02;;;4.05;;
45043;SDS011;30784;48.490;9.688;2023-01-01T06:12:56;9.50;;;3.80;;
45043;SDS011;30784;48.490;9.688;2023-01-01T06:15:23;8.93;;;4.00;;
45043;SDS011;30784;48.490;9.688;2023-01-01T06:17:49;10.75;;;5.25;;
45043;SDS011;30784;48.490;9.688;2023-01-01T06:20:14;13.57;;;5.90;;
45043;SDS011;30784;48.490;9.688;2023-01-01T06:22:40;11.35;;;4.55;;
45043;SDS011;30784;48.490;9.688;2023-01-01T06:25:06;10.25;;;3.95;;
45043;SDS011;30784;48.490;9.688;2023-01-01T06:27:33;8.90;;;3.72;;
45043;SDS011;30784;48.490;9.688;2023-01-01T06:29:59;7.43;;;3.08;;
45043;SDS011;30784;48.490;9.688;2023-01-01T06:32:25;7.05;;;2.67;;
45043;SDS011;30784;48.490;9.688;2023-01-01T06:34:51;7.25;;;2.60;;
45043;SDS011;30784;48.490;9.688;2023-01-01T06:37:16;6.57;;;2.47;;
45043;SDS011;30784;48.490;9.688;2023-01-01T06:39:42;8.15;;;2.60;;
45043;SDS011;30784;48.490;9.688;2023-01-01T06:42:07;7.68;;;2.65;;
45043;SDS011;30784;48.490;9.688;2023-01-01T06:44:33;6.65;;;2.60;;
45043;SDS011;30784;48.490;9.688;2023-01-01T06:46:58;7.20;;;2.90;;
45043;SDS011;30784;48.490;9.688;2023-01-01T06:49:24;8.10;;;3.10;;
45043;SDS011;30784;48.490;9.688;2023-01-01T06:51:49;8.57;;;3.03;;
45043;SDS011;30784;48.490;9.688;2023-01-01T06:54:15;7.13;;;2.83;;
45043;SDS011;30784;48.490;9.688;2023-01-01T06:56:40;8.77;;;3.08;;
45043;SDS011;30784;48.490;9.688;2023-01-01T06:59:06;7.82;;;2.90;;
45043;SDS011;30784;48.490;9.688;2023-01-01T07:01:33;7.20;;;2.85;;
45043;SDS011;30784;48.490;9.688;2023-01-01T07:04:01;6.82;;;2.75;;
45043;SDS011;30784;48.490;9.688;2023-01-01T07:06:29;7.85;;;3.13;;
45043;SDS011;30784;48.490;9.688;2023-01-01T07:08:56;7.78;;;3.17;;
45043;SDS011;30784;48.490;9.688;2023-01-01T07:11:22;8.80;;;3.10;;
45043;SDS011;30784;48.490;9.688;2023-01-01T07:13:48;7.13;;;2.58;;
45043;SDS011;30784;48.490;9.688;2023-01-01T07:16:14;7.07;;;2.90;;
45043;SDS011;30784;48.490;9.688;2023-01-01T07:18:40;7.78;;;2.70;;
45043;SDS011;30784;48.490;9.688;2023-01-01T07:21:06;7.00;;;2.75;;
45043;SDS011;30784;48.490;9.688;2023-01-01T07:24:09;7.45;;;2.60;;
45043;SDS011;30784;48.490;9.688;2023-01-01T07:26:36;7.70;;;2.50;;
45043;SDS011;30784;48.490;9.688;2023-01-01T07:29:02;6.50;;;2.33;;
45043;SDS011;30784;48.490;9.688;2023-01-01T07:31:28;7.15;;;3.00;;
45043;SDS011;30784;48.490;9.688;2023-01-01T07:33:53;7.57;;;2.90;;
45043;SDS011;30784;48.490;9.688;2023-01-01T07:36:19;7.05;;;2.70;;
45043;SDS011;30784;48.490;9.688;2023-01-01T07:38:44;7.45;;;2.65;;
45043;SDS011;30784;48.490;9.688;2023-01-01T07:41:10;6.88;;;2.70;;
45043;SDS011;30784;48.490;9.688;2023-01-01T07:43:35;8.13;;;2.80;;
45043;SDS011;30784;48.490;9.688;2023-01-01T07:46:01;6.07;;;2.13;;
45043;SDS011;30784;48.490;9.688;2023-01-01T07:48:27;7.32;;;2.78;;
45043;SDS011;30784;48.490;9.688;2023-01-01T07:50:54;6.75;;;2.47;;
45043;SDS011;30784;48.490;9.688;2023-01-01T07:53:19;6.45;;;2.50;;
45043;SDS011;30784;48.490;9.688;2023-01-01T07:55:45;6.78;;;2.63;;
45043;SDS011;30784;48.490;9.688;2023-01-01T07:58:11;6.57;;;2.30;;
45043;SDS011;30784;48.490;9.688;2023-01-01T08:00:37;6.72;;;2.53;;
45043;SDS011;30784;48.490;9.688;2023-01-01T08:03:03;5.70;;;2.50;;
45043;SDS011;30784;48.490;9.688;2023-01-01T08:05:29;7.13;;;2.35;;
45043;SDS011;30784;48.490;9.688;2023-01-01T08:07:55;6.95;;;2.50;;
45043;SDS011;30784;48.490;9.688;2023-01-01T08:10:21;6.68;;;2.42;;
45043;SDS011;30784;48.490;9.688;2023-01-01T08:12:46;6.93;;;2.65;;
45043;SDS011;30784;48.490;9.688;2023-01-01T08:15:12;7.60;;;2.58;;
45043;SDS011;30784;48.490;9.688;2023-01-01T08:17:38;8.55;;;2.83;;
45043;SDS011;30784;48.490;9.688;2023-01-01T08:20:04;6.40;;;2.72;;
45043;SDS011;30784;48.490;9.688;2023-01-01T08:22:31;7.35;;;3.20;;
45043;SDS011;30784;48.490;9.688;2023-01-01T08:24:56;8.15;;;3.75;;
45043;SDS011;30784;48.490;9.688;2023-01-01T08:27:22;9.07;;;3.83;;
45043;SDS011;30784;48.490;9.688;2023-01-01T08:29:47;7.88;;;3.13;;
45043;SDS011;30784;48.490;9.688;2023-01-01T08:32:13;7.22;;;2.83;;
45043;SDS011;30784;48.490;9.688;2023-01-01T08:34:39;7.72;;;3.33;;
45043;SDS011;30784;48.490;9.688;2023-01-01T08:37:05;8.45;;;3.30;;
45043;SDS011;30784;48.490;9.688;2023-01-01T08:39:31;8.30;;;3.08;;
45043;SDS011;30784;48.490;9.688;2023-01-01T08:41:56;7.20;;;3.20;;
45043;SDS011;30784;48.490;9.688;2023-01-01T08:44:22;8.07;;;2.80;;
45043;SDS011;30784;48.490;9.688;2023-01-01T08:46:47;7.05;;;2.88;;
45043;SDS011;30784;48.490;9.688;2023-01-01T08:49:16;6.22;;;2.40;;
45043;SDS011;30784;48.490;9.688;2023-01-01T08:51:42;6.22;;;2.30;;
45043;SDS011;30784;48.490;9.688;2023-01-01T08:54:07;7.30;;;2.50;;
45043;SDS011;30784;48.490;9.688;2023-01-01T08:56:33;7.22;;;2.60;;
45043;SDS011;30784;48.490;9.688;2023-01-01T08:58:59;9.90;;;2.80;;
45043;SDS011;30784;48.490;9.688;2023-01-01T09:01:25;5.78;;;2.45;;
45043;SDS011;30784;48.490;9.688;2023-01-01T09:03:51;8.07;;;2.95;;
45043;SDS011;30784;48.490;9.688;2023-01-01T09:06:17;9.05;;;3.55;;
45043;SDS011;30784;48.490;9.688;2023-01-01T09:08:43;8.00;;;2.97;;
45043;SDS011;30784;48.490;9.688;2023-01-01T09:11:20;7.10;;;2.47;;
45043;SDS011;30784;48.490;9.688;2023-01-01T09:13:50;6.55;;;2.58;;
45043;SDS011;30784;48.490;9.688;2023-01-01T09:16:16;7.32;;;2.70;;
45043;SDS011;30784;48.490;9.688;2023-01-01T09:18:42;9.27;;;2.53;;
45043;SDS011;30784;48.490;9.688;2023-01-01T09:21:07;7.15;;;2.55;;
45043;SDS011;30784;48.490;9.688;2023-01-01T09:23:33;6.35;;;2.38;;
45043;SDS011;30784;48.490;9.688;2023-01-01T09:26:06;6.65;;;2.42;;
45043;SDS011;30784;48.490;9.688;2023-01-01T09:28:33;7.15;;;2.60;;
45043;SDS011;30784;48.490;9.688;2023-01-01T09:30:59;5.60;;;2.10;;
45043;SDS011;30784;48.490;9.688;2023-01-01T09:33:26;6.75;;;2.42;;
45043;SDS011;30784;48.490;9.688;2023-01-01T09:35:52;9.00;;;2.78;;
45043;SDS011;30784;48.490;9.688;2023-01-01T09:38:17;7.93;;;2.47;;
45043;SDS011;30784;48.490;9.688;2023-01-01T09:43:53;5.45;;;2.00;;
45043;SDS011;30784;48.490;9.688;2023-01-01T09:46:40;6.53;;;2.10;;
45043;SDS011;30784;48.490;9.688;2023-01-01T09:49:10;6.32;;;2.05;;
45043;SDS011;30784;48.490;9.688;2023-01-01T09:51:44;7.90;;;2.60;;
45043;SDS011;30784;48.490;9.688;2023-01-01T09:56:55;8.18;;;2.05;;
45043;SDS011;30784;48.490;9.688;2023-01-01T09:59:22;6.65;;;2.33;;
45043;SDS011;30784;48.490;9.688;2023-01-01T10:01:52;6.57;;;2.45;;
45043;SDS011;30784;48.490;9.688;2023-01-01T10:07:40;8.82;;;3.10;;
45043;SDS011;30784;48.490;9.688;2023-01-01T10:15:58;6.93;;;2.75;;
45043;SDS011;30784;48.490;9.688;2023-01-01T10:21:11;13.37;;;4.93;;
45043;SDS011;30784;48.490;9.688;2023-01-01T10:23:47;11.48;;;4.30;;
45043;SDS011;30784;48.490;9.688;2023-01-01T10:26:20;17.42;;;6.65;;
45043;SDS011;30784;48.490;9.688;2023-01-01T10:28:50;18.80;;;7.40;;
45043;SDS011;30784;48.490;9.688;2023-01-01T10:34:22;12.95;;;5.35;;
45043;SDS011;30784;48.490;9.688;2023-01-01T10:36:53;14.15;;;5.03;;
45043;SDS011;30784;48.490;9.688;2023-01-01T10:39:21;11.18;;;4.18;;
45043;SDS011;30784;48.490;9.688;2023-01-01T10:41:47;8.82;;;3.28;;
45043;SDS011;30784;48.490;9.688;2023-01-01T10:44:14;7.25;;;2.20;;
45043;SDS011;30784;48.490;9.688;2023-01-01T10:46:46;7.53;;;3.28;;
45043;SDS011;30784;48.490;9.688;2023-01-01T10:49:21;5.93;;;2.13;;
45043;SDS011;30784;48.490;9.688;2023-01-01T10:51:48;6.78;;;2.42;;
45043;SDS011;30784;48.490;9.688;2023-01-01T10:54:21;7.88;;;2.95;;
45043;SDS011;30784;48.490;9.688;2023-01-01T10:57:12;7.85;;;2.88;;
45043;SDS011;30784;48.490;9.688;2023-01-01T10:59:42;6.63;;;2.20;;
45043;SDS011;30784;48.490;9.688;2023-01-01T11:02:16;7.43;;;2.35;;
45043;SDS011;30784;48.490;9.688;2023-01-01T11:04:52;6.50;;;2.33;;
45043;SDS011;30784;48.490;9.688;2023-01-01T11:07:42;7.00;;;2.35;;
45043;SDS011;30784;48.490;9.688;2023-01-01T11:10:16;8.02;;;2.90;;
45043;SDS011;30784;48.490;9.688;2023-01-01T11:12:44;8.10;;;2.78;;
45043;SDS011;30784;48.490;9.688;2023-01-01T11:17:49;5.60;;;2.03;;
45043;SDS011;30784;48.490;9.688;2023-01-01T11:20:16;6.97;;;2.40;;
45043;SDS011;30784;48.490;9.688;2023-01-01T11:22:48;6.05;;;2.28;;
45043;SDS011;30784;48.490;9.688;2023-01-01T11:25:19;5.72;;;2.00;;
45043;SDS011;30784;48.490;9.688;2023-01-01T11:27:49;5.75;;;2.05;;
45043;SDS011;30784;48.490;9.688;2023-01-01T11:32:49;6.70;;;2.22;;
45043;SDS011;30784;48.490;9.688;2023-01-01T11:35:21;5.90;;;1.88;;
45043;SDS011;30784;48.490;9.688;2023-01-01T11:37:50;6.63;;;1.90;;
45043;SDS011;30784;48.490;9.688;2023-01-01T11:40:28;5.35;;;1.80;;
45043;SDS011;30784;48.490;9.688;2023-01-01T11:43:00;5.72;;;1.88;;
45043;SDS011;30784;48.490;9.688;2023-01-01T11:45:31;6.55;;;2.38;;
45043;SDS011;30784;48.490;9.688;2023-01-01T11:48:05;9.82;;;5.00;;
45043;SDS011;30784;48.490;9.688;2023-01-01T11:50:38;8.35;;;3.95;;
45043;SDS011;30784;48.490;9.688;2023-01-01T11:58:47;6.07;;;1.67;;
45043;SDS011;30784;48.490;9.688;2023-01-01T12:04:09;6.40;;;2.13;;
45043;SDS011;30784;48.490;9.688;2023-01-01T12:06:46;5.63;;;2.03;;
45043;SDS011;30784;48.490;9.688;2023-01-01T12:12:35;7.25;;;2.00;;
45043;SDS011;30784;48.490;9.688;2023-01-01T12:15:09;5.70;;;1.70;;
45043;SDS011;30784;48.490;9.688;2023-01-01T12:23:40;8.95;;;2.50;;
45043;SDS011;30784;48.490;9.688;2023-01-01T12:26:14;6.85;;;1.92;;
45043;SDS011;30784;48.490;9.688;2023-01-01T12:48:37;5.85;;;1.58;;
45043;SDS011;30784;48.490;9.688;2023-01-01T12:51:25;6.40;;;1.77;;
45043;SDS011;30784;48.490;9.688;2023-01-01T12:57:05;5.82;;;1.90;;
45043;SDS011;30784;48.490;9.688;2023-01-01T12:59:37;7.78;;;3.13;;
45043;SDS011;30784;48.490;9.688;2023-01-01T13:02:11;5.05;;;1.73;;
45043;SDS011;30784;48.490;9.688;2023-01-01T13:04:49;5.47;;;1.60;;
45043;SDS011;30784;48.490;9.688;2023-01-01T13:07:25;5.65;;;1.77;;
45043;SDS011;30784;48.490;9.688;2023-01-01T13:10:03;7.75;;;1.90;;
45043;SDS011;30784;48.490;9.688;2023-01-01T13:12:52;6.22;;;1.80;;
45043;SDS011;30784;48.490;9.688;2023-01-01T13:20:43;6.20;;;1.80;;
45043;SDS011;30784;48.490;9.688;2023-01-01T13:39:54;4.07;;;1.48;;
45043;SDS011;30784;48.490;9.688;2023-01-01T13:45:26;7.50;;;2.22;;
45043;SDS011;30784;48.490;9.688;2023-01-01T13:48:06;7.25;;;2.53;;
45043;SDS011;30784;48.490;9.688;2023-01-01T13:53:23;7.72;;;2.00;;
45043;SDS011;30784;48.490;9.688;2023-01-01T14:01:29;5.33;;;1.87;;
45043;SDS011;30784;48.490;9.688;2023-01-01T14:04:06;8.02;;;2.17;;
45043;SDS011;30784;48.490;9.688;2023-01-01T14:06:45;6.82;;;2.50;;
45043;SDS011;30784;48.490;9.688;2023-01-01T14:09:14;7.22;;;2.00;;
45043;SDS011;30784;48.490;9.688;2023-01-01T14:11:43;6.00;;;1.60;;
45043;SDS011;30784;48.490;9.688;2023-01-01T14:14:27;7.20;;;2.10;;
45043;SDS011;30784;48.490;9.688;2023-01-01T14:16:56;6.07;;;1.67;;
45043;SDS011;30784;48.490;9.688;2023-01-01T14:19:24;7.90;;;2.63;;
45043;SDS011;30784;48.490;9.688;2023-01-01T14:21:51;5.15;;;1.83;;
45043;SDS011;30784;48.490;9.688;2023-01-01T14:24:18;6.82;;;2.03;;
45043;SDS011;30784;48.490;9.688;2023-01-01T14:26:45;7.45;;;2.13;;
45043;SDS011;30784;48.490;9.688;2023-01-01T14:29:16;6.65;;;1.80;;
45043;SDS011;30784;48.490;9.688;2023-01-01T14:32:10;6.35;;;1.88;;
45043;SDS011;30784;48.490;9.688;2023-01-01T14:34:43;6.97;;;1.90;;
45043;SDS011;30784;48.490;9.688;2023-01-01T14:37:20;8.43;;;2.05;;
45043;SDS011;30784;48.490;9.688;2023-01-01T14:40:03;6.93;;;1.70;;
45043;SDS011;30784;48.490;9.688;2023-01-01T14:42:36;5.78;;;1.63;;
45043;SDS011;30784;48.490;9.688;2023-01-01T14:45:04;5.93;;;1.95;;
45043;SDS011;30784;48.490;9.688;2023-01-01T14:47:33;5.10;;;1.77;;
45043;SDS011;30784;48.490;9.688;2023-01-01T14:50:03;6.13;;;2.10;;
45043;SDS011;30784;48.490;9.688;2023-01-01T14:52:43;6.88;;;2.38;;
45043;SDS011;30784;48.490;9.688;2023-01-01T14:55:14;11.48;;;4.97;;
45043;SDS011;30784;48.490;9.688;2023-01-01T14:57:43;9.95;;;4.18;;
45043;SDS011;30784;48.490;9.688;2023-01-01T15:00:21;8.02;;;2.33;;
45043;SDS011;30784;48.490;9.688;2023-01-01T15:02:48;5.07;;;1.60;;
45043;SDS011;30784;48.490;9.688;2023-01-01T15:07:56;7.53;;;2.90;;
45043;SDS011;30784;48.490;9.688;2023-01-01T15:10:24;10.93;;;4.45;;
45043;SDS011;30784;48.490;9.688;2023-01-01T15:12:51;9.57;;;3.35;;
45043;SDS011;30784;48.490;9.688;2023-01-01T15:15:33;8.93;;;3.22;;
45043;SDS011;30784;48.490;9.688;2023-01-01T15:23:52;12.63;;;5.00;;
45043;SDS011;30784;48.490;9.688;2023-01-01T15:26:26;12.05;;;4.60;;
45043;SDS011;30784;48.490;9.688;2023-01-01T15:29:08;7.88;;;2.65;;
45043;SDS011;30784;48.490;9.688;2023-01-01T15:31:40;8.27;;;3.72;;
45043;SDS011;30784;48.490;9.688;2023-01-01T15:34:16;6.78;;;2.30;;
45043;SDS011;30784;48.490;9.688;2023-01-01T15:36:46;6.90;;;2.38;;
45043;SDS011;30784;48.490;9.688;2023-01-01T15:39:13;7.22;;;1.98;;
45043;SDS011;30784;48.490;9.688;2023-01-01T15:44:17;5.38;;;1.52;;
45043;SDS011;30784;48.490;9.688;2023-01-01T15:46:45;6.93;;;1.75;;
45043;SDS011;30784;48.490;9.688;2023-01-01T15:49:22;6.38;;;1.90;;
45043;SDS011;30784;48.490;9.688;2023-01-01T15:51:53;5.50;;;1.90;;
45043;SDS011;30784;48.490;9.688;2023-01-01T15:54:25;7.38;;;1.75;;
45043;SDS011;30784;48.490;9.688;2023-01-01T15:56:51;5.38;;;1.60;;
45043;SDS011;30784;48.490;9.688;2023-01-01T15:59:21;5.90;;;2.13;;
45043;SDS011;30784;48.490;9.688;2023-01-01T16:01:51;10.00;;;3.75;;
45043;SDS011;30784;48.490;9.688;2023-01-01T16:04:28;7.93;;;2.90;;
45043;SDS011;30784;48.490;9.688;2023-01-01T16:06:54;8.43;;;3.80;;
45043;SDS011;30784;48.490;9.688;2023-01-01T16:09:21;11.38;;;4.85;;
45043;SDS011;30784;48.490;9.688;2023-01-01T16:11:54;13.30;;;5.03;;
45043;SDS011;30784;48.490;9.688;2023-01-01T16:14:21;15.80;;;6.38;;
45043;SDS011;30784;48.490;9.688;2023-01-01T16:16:54;19.33;;;8.90;;
45043;SDS011;30784;48.490;9.688;2023-01-01T16:19:24;18.02;;;8.20;;
45043;SDS011;30784;48.490;9.688;2023-01-01T16:21:50;16.45;;;6.38;;
45043;SDS011;30784;48.490;9.688;2023-01-01T16:24:16;13.15;;;5.50;;
45043;SDS011;30784;48.490;9.688;2023-01-01T16:26:43;10.32;;;3.78;;
45043;SDS011;30784;48.490;9.688;2023-01-01T16:29:09;8.20;;;3.17;;
45043;SDS011;30784;48.490;9.688;2023-01-01T16:31:35;10.23;;;3.20;;
45043;SDS011;30784;48.490;9.688;2023-01-01T16:34:02;15.50;;;4.90;;
45043;SDS011;30784;48.490;9.688;2023-01-01T16:36:29;20.63;;;7.25;;
45043;SDS011;30784;48.490;9.688;2023-01-01T16:38:55;23.58;;;8.70;;
45043;SDS011;30784;48.490;9.688;2023-01-01T16:41:21;25.33;;;9.70;;
45043;SDS011;30784;48.490;9.688;2023-01-01T16:43:48;22.88;;;8.02;;
45043;SDS011;30784;48.490;9.688;2023-01-01T16:46:13;17.10;;;5.50;;
45043;SDS011;30784;48.490;9.688;2023-01-01T16:48:39;20.15;;;7.47;;
45043;SDS011;30784;48.490;9.688;2023-01-01T16:51:05;14.32;;;5.22;;
45043;SDS011;30784;48.490;9.688;2023-01-01T16:53:39;13.65;;;4.70;;
45043;SDS011;30784;48.490;9.688;2023-01-01T16:56:05;8.40;;;3.05;;
45043;SDS011;30784;48.490;9.688;2023-01-01T16:58:31;7.18;;;2.90;;
45043;SDS011;30784;48.490;9.688;2023-01-01T17:01:00;7.53;;;3.30;;
45043;SDS011;30784;48.490;9.688;2023-01-01T17:03:26;6.93;;;2.67;;
45043;SDS011;30784;48.490;9.688;2023-01-01T17:05:52;5.82;;;2.00;;
45043;SDS011;30784;48.490;9.688;2023-01-01T17:08:18;7.00;;;2.33;;
45043;SDS011;30784;48.490;9.688;2023-01-01T17:10:44;7.70;;;2.97;;
45043;SDS011;30784;48.490;9.688;2023-01-01T17:13:10;9.63;;;3.22;;
45043;SDS011;30784;48.490;9.688;2023-01-01T17:15:36;7.20;;;2.47;;
45043;SDS011;30784;48.490;9.688;2023-01-01T17:18:02;7.22;;;2.63;;
45043;SDS011;30784;48.490;9.688;2023-01-01T17:20:28;9.82;;;4.07;;
45043;SDS011;30784;48.490;9.688;2023-01-01T17:22:54;13.75;;;5.13;;
45043;SDS011;30784;48.490;9.688;2023-01-01T17:25:20;17.20;;;7.18;;